createdAt,value
2016-12-31T11:52:54.919Z,18.66
2016-12-31T11:57:54.889Z,18.63
2016-12-31T12:02:54.464Z,18.63
2016-12-31T12:07:54.439Z,18.69
2016-12-31T12:12:54.805Z,18.72
2016-12-31T12:17:54.004Z,18.78
2016-12-31T12:22:54.362Z,18.75
2016-12-31T12:27:54.734Z,18.82
2016-12-31T12:32:54.303Z,18.89
2016-12-31T12:37:54.695Z,18.97
2016-12-31T12:42:54.645Z,18.97
2016-12-31T12:47:54.612Z,18.89
2016-12-31T12:52:53.805Z,18.87
2016-12-31T12:57:53.789Z,18.75
2016-12-31T13:02:54.148Z,18.78
2016-12-31T13:07:54.519Z,18.87
2016-12-31T13:12:54.097Z,18.81
2016-12-31T13:17:54.459Z,18.76
2016-12-31T13:22:54.430Z,18.81
2016-12-31T13:27:54.417Z,18.79
2016-12-31T13:32:54.385Z,18.47
2016-12-31T13:37:53.968Z,18.59
2016-12-31T13:42:53.935Z,18.5
2016-12-31T13:47:53.908Z,18.56
2016-12-31T13:52:54.278Z,18.66
2016-12-31T13:57:54.267Z,18.72
2016-12-31T14:02:54.235Z,18.74
2016-12-31T14:07:53.821Z,18.65
2016-12-31T14:12:54.171Z,18.68
2016-12-31T14:17:54.141Z,18.65
2016-12-31T14:22:54.117Z,18.61
2016-12-31T14:27:53.701Z,18.6
2016-12-31T14:32:53.683Z,18.57
2016-12-31T14:37:53.656Z,18.56
2016-12-31T14:42:54.003Z,18.56
2016-12-31T14:47:53.593Z,18.53
2016-12-31T14:52:53.946Z,18.63
2016-12-31T14:57:53.932Z,18.44
2016-12-31T15:02:53.530Z,18.39
2016-12-31T15:07:53.873Z,18.36
2016-12-31T15:12:53.853Z,18.34
2016-12-31T15:17:53.424Z,18.36
2016-12-31T15:22:53.005Z,18.36
2016-12-31T15:27:53.761Z,18.38
2016-12-31T15:32:52.941Z,18.32
2016-12-31T15:37:53.302Z,18.29
2016-12-31T15:42:53.674Z,18.29
2016-12-31T15:47:53.639Z,18.16
2016-12-31T15:52:53.623Z,18.16
2016-12-31T15:57:53.176Z,18.1
2016-12-31T16:02:53.160Z,18.05
2016-12-31T16:07:53.114Z,18.16
2016-12-31T16:12:52.696Z,18.02
2016-12-31T16:17:53.050Z,18.05
2016-12-31T16:22:53.033Z,18.14
2016-12-31T16:27:53.381Z,18.16
2016-12-31T16:32:52.968Z,18.05
2016-12-31T16:37:53.330Z,18.17
2016-12-31T16:42:53.280Z,18.5
2016-12-31T16:47:53.271Z,19.23
2016-12-31T16:52:52.854Z,19.79
2016-12-31T16:57:52.824Z,20.18
2016-12-31T17:02:53.192Z,20.63
2016-12-31T17:07:53.164Z,20.64
2016-12-31T17:12:53.140Z,20.67
2016-12-31T17:17:52.750Z,20.54
2016-12-31T17:22:52.725Z,20.49
2016-12-31T17:27:53.097Z,20.4
2016-12-31T17:32:53.072Z,20.27
2016-12-31T17:37:52.665Z,20.34
2016-12-31T17:42:53.044Z,20.34
2016-12-31T17:47:53.018Z,20.34
2016-12-31T17:52:53.016Z,20.48
2016-12-31T17:57:52.598Z,20.58
2016-12-31T18:02:52.576Z,20.53
2016-12-31T18:07:52.198Z,20.61
2016-12-31T18:12:52.936Z,21.12
2016-12-31T18:17:52.921Z,20.81
2016-12-31T18:22:52.902Z,20.56
2016-12-31T18:27:52.897Z,20.57
2016-12-31T18:32:52.512Z,20.49
2016-12-31T18:37:52.071Z,20.56
2016-12-31T18:42:52.448Z,20.44
2016-12-31T18:47:52.816Z,20.38
2016-12-31T18:52:52.409Z,20.49
2016-12-31T18:57:52.403Z,20.41
2016-12-31T19:02:52.376Z,20.4
2016-12-31T19:07:52.755Z,20.42
2016-12-31T19:12:52.736Z,20.46
2016-12-31T19:17:52.713Z,20.67
2016-12-31T19:22:52.704Z,20.81
2016-12-31T19:27:52.678Z,20.74
2016-12-31T19:32:52.274Z,20.78
2016-12-31T19:37:52.647Z,20.58
2016-12-31T19:42:52.625Z,20.54
2016-12-31T19:47:51.828Z,20.64
2016-12-31T19:52:52.201Z,20.61
2016-12-31T19:57:52.184Z,20.61
2016-12-31T20:02:52.165Z,20.44
2016-12-31T20:07:52.148Z,20.41
2016-12-31T20:12:52.518Z,20.41
2016-12-31T20:17:52.120Z,20.46
2016-12-31T20:22:52.478Z,20.4
2016-12-31T20:27:52.455Z,20.42
2016-12-31T20:32:52.052Z,20.37
2016-12-31T20:37:52.026Z,20.41
2016-12-31T20:42:52.004Z,20.44
2016-12-31T20:47:52.376Z,20.51
2016-12-31T20:52:52.386Z,20.48
2016-12-31T20:57:51.948Z,20.56
2016-12-31T21:02:51.933Z,20.63
2016-12-31T21:07:52.315Z,20.68
2016-12-31T21:12:52.305Z,20.56
2016-12-31T21:17:51.876Z,20.64
2016-12-31T21:22:51.465Z,20.6
2016-12-31T21:27:51.449Z,20.64
2016-12-31T21:32:52.201Z,20.57
2016-12-31T21:37:52.185Z,20.6
2016-12-31T21:42:52.169Z,20.63
2016-12-31T21:47:51.755Z,20.6
2016-12-31T21:52:52.127Z,20.6
2016-12-31T21:57:51.720Z,20.57
2016-12-31T22:02:51.707Z,20.64
2016-12-31T22:07:51.683Z,20.6
2016-12-31T22:12:51.658Z,20.41
2016-12-31T22:17:52.029Z,20.54
2016-12-31T22:22:52.011Z,20.54
2016-12-31T22:27:51.994Z,20.6
2016-12-31T22:32:51.198Z,20.6
2016-12-31T22:37:51.954Z,20.63
2016-12-31T22:42:51.541Z,20.41
2016-12-31T22:47:51.523Z,20.22
2016-12-31T22:52:51.499Z,20.19
2016-12-31T22:57:51.868Z,20.05
2016-12-31T23:02:51.850Z,19.86
2016-12-31T23:07:51.451Z,19.75
2016-12-31T23:12:51.413Z,19.55
2016-12-31T23:17:51.780Z,19.45
2016-12-31T23:22:51.766Z,19.38
2016-12-31T23:27:51.732Z,19.23
2016-12-31T23:32:51.711Z,19.1
2016-12-31T23:37:51.684Z,18.97
2016-12-31T23:42:51.269Z,18.94
2016-12-31T23:47:51.243Z,18.79
2016-12-31T23:52:51.211Z,18.72
2016-12-31T23:57:51.191Z,18.61
